createdAt,value
2022-09-29T00:01:04.632Z,13.00
2022-09-29T00:03:31.437Z,13.00
2022-09-29T00:05:58.492Z,13.00
2022-09-29T00:08:29.324Z,12.90
2022-09-29T00:10:56.884Z,12.90
2022-09-29T00:13:24.053Z,12.90
2022-09-29T00:15:59.867Z,12.80
2022-09-29T00:18:27.980Z,12.80
2022-09-29T00:21:01.600Z,12.70
2022-09-29T00:23:29.767Z,12.70
2022-09-29T00:26:17.500Z,12.60
2022-09-29T00:28:56.664Z,12.70
2022-09-29T00:31:26.295Z,12.60
2022-09-29T00:33:53.430Z,12.60
2022-09-29T00:36:22.564Z,12.50
2022-09-29T00:38:52.672Z,12.50
2022-09-29T00:41:40.945Z,12.50
2022-09-29T00:44:13.325Z,12.40
2022-09-29T00:47:03.085Z,12.40
2022-09-29T00:49:44.867Z,12.40
2022-09-29T00:52:30.554Z,12.30
2022-09-29T00:55:05.694Z,12.30
2022-09-29T00:58:07.780Z,12.30
2022-09-29T01:00:34.976Z,12.20
2022-09-29T01:03:12.807Z,12.10
2022-09-29T01:05:47.407Z,12.10
2022-09-29T01:08:24.601Z,12.00
2022-09-29T01:10:53.491Z,11.90
2022-09-29T01:13:22.271Z,12.00
2022-09-29T01:15:48.978Z,11.90
2022-09-29T01:18:15.922Z,11.90
2022-09-29T01:21:33.544Z,12.00
2022-09-29T01:24:31.994Z,11.90
2022-09-29T01:27:19.426Z,11.80
2022-09-29T01:30:35.181Z,11.80
2022-09-29T01:33:39.269Z,11.80
2022-09-29T01:36:45.058Z,11.80
2022-09-29T01:39:23.949Z,11.70
2022-09-29T01:42:05.737Z,11.70
2022-09-29T01:45:02.054Z,11.70
2022-09-29T01:47:40.973Z,11.70
2022-09-29T01:50:18.366Z,11.60
2022-09-29T01:52:51.461Z,11.60
2022-09-29T01:55:23.016Z,11.60
2022-09-29T01:58:19.797Z,11.60
2022-09-29T02:00:55.041Z,11.60
2022-09-29T02:03:42.149Z,11.60
2022-09-29T02:06:17.721Z,11.50
2022-09-29T02:08:55.630Z,11.50
2022-09-29T02:11:22.989Z,11.50
2022-09-29T02:14:16.682Z,11.50
2022-09-29T02:16:52.149Z,11.50
2022-09-29T02:19:29.246Z,11.50
2022-09-29T02:21:56.001Z,11.40
2022-09-29T02:24:24.554Z,11.40
2022-09-29T02:26:53.491Z,11.40
2022-09-29T02:29:20.825Z,11.50
2022-09-29T02:31:48.823Z,11.40
2022-09-29T02:34:21.361Z,11.50
2022-09-29T02:37:54.566Z,11.40
2022-09-29T02:40:59.087Z,11.40
2022-09-29T02:44:04.814Z,11.50
2022-09-29T02:47:07.088Z,11.50
2022-09-29T02:50:02.782Z,11.50
2022-09-29T02:52:52.174Z,11.50
2022-09-29T02:56:24.030Z,11.60
2022-09-29T02:59:25.048Z,11.60
2022-09-29T03:01:56.141Z,11.60
2022-09-29T03:04:26.774Z,11.60
2022-09-29T03:06:54.640Z,11.70
2022-09-29T03:09:21.465Z,11.70
2022-09-29T03:11:48.238Z,11.70
2022-09-29T03:14:15.013Z,11.80
2022-09-29T03:16:42.951Z,11.80
2022-09-29T03:19:09.831Z,11.80
2022-09-29T03:21:36.624Z,11.80
2022-09-29T03:24:03.457Z,11.90
2022-09-29T03:26:30.267Z,11.90
2022-09-29T03:28:57.318Z,11.90
2022-09-29T03:31:24.113Z,12.00
2022-09-29T03:33:51.579Z,12.00
2022-09-29T03:36:18.290Z,11.90
2022-09-29T03:38:47.028Z,12.00
2022-09-29T03:41:13.933Z,12.00
2022-09-29T03:43:40.629Z,12.00
2022-09-29T03:46:07.407Z,12.10
2022-09-29T03:48:35.347Z,12.10
2022-09-29T03:51:02.393Z,12.10
2022-09-29T03:53:29.477Z,12.20
2022-09-29T03:55:56.293Z,12.10
2022-09-29T03:58:22.981Z,12.20
2022-09-29T04:00:50.044Z,12.20
2022-09-29T04:03:16.962Z,12.20
2022-09-29T04:05:47.012Z,12.30
2022-09-29T04:08:15.048Z,12.20
2022-09-29T04:10:42.312Z,12.30
2022-09-29T04:13:09.423Z,12.30
2022-09-29T04:15:36.353Z,12.30
2022-09-29T04:18:03.090Z,12.30
2022-09-29T04:20:30.007Z,12.30
2022-09-29T04:22:56.893Z,12.40
2022-09-29T04:25:23.623Z,12.40
2022-09-29T04:27:50.569Z,12.40
2022-09-29T04:30:18.501Z,12.40
2022-09-29T04:32:45.234Z,12.40
2022-09-29T04:35:11.934Z,12.40
2022-09-29T04:37:38.650Z,12.40
2022-09-29T04:40:06.698Z,12.50
2022-09-29T04:42:33.491Z,12.50
2022-09-29T04:45:00.275Z,12.50
2022-09-29T04:47:27.427Z,12.50
2022-09-29T04:49:54.292Z,12.60
2022-09-29T04:52:21.052Z,12.60
2022-09-29T04:54:47.995Z,12.50
2022-09-29T04:57:14.706Z,12.70
2022-09-29T04:59:41.599Z,12.60
2022-09-29T05:02:08.455Z,12.60
2022-09-29T05:04:35.218Z,12.60
2022-09-29T05:07:02.118Z,12.60
2022-09-29T05:09:33.289Z,12.70
2022-09-29T05:12:02.003Z,12.70
2022-09-29T05:14:28.821Z,12.70
2022-09-29T05:16:56.903Z,12.70
2022-09-29T05:19:23.742Z,12.70
2022-09-29T05:21:50.574Z,12.80
2022-09-29T05:24:18.071Z,12.70
2022-09-29T05:26:45.278Z,12.70
2022-09-29T05:29:12.118Z,12.80
2022-09-29T05:31:39.267Z,12.80
2022-09-29T05:34:06.139Z,12.80
2022-09-29T05:36:33.053Z,12.80
2022-09-29T05:38:59.950Z,12.80
2022-09-29T05:41:26.985Z,12.80
2022-09-29T05:43:55.754Z,12.90
2022-09-29T05:46:24.053Z,12.90
2022-09-29T05:48:51.401Z,13.00
2022-09-29T05:51:23.591Z,12.90
2022-09-29T05:53:51.965Z,13.00
2022-09-29T05:56:25.686Z,13.00
2022-09-29T05:58:53.688Z,13.00
2022-09-29T06:01:26.685Z,13.10
2022-09-29T06:03:55.635Z,13.10
2022-09-29T06:06:26.952Z,13.20
2022-09-29T06:08:54.874Z,13.20
2022-09-29T06:11:27.392Z,13.20
2022-09-29T06:13:55.641Z,13.20
2022-09-29T06:16:26.269Z,13.30
2022-09-29T06:18:53.974Z,13.30
2022-09-29T06:21:25.187Z,13.30
2022-09-29T06:23:54.877Z,13.30
2022-09-29T06:26:24.420Z,13.30
2022-09-29T06:28:52.896Z,13.40
2022-09-29T06:31:24.221Z,13.40
2022-09-29T06:33:51.853Z,13.40
2022-09-29T06:36:46.802Z,13.50
2022-09-29T06:39:15.328Z,13.50
2022-09-29T06:41:48.727Z,13.60
2022-09-29T06:44:15.898Z,13.60
2022-09-29T06:46:42.701Z,13.70
2022-09-29T06:49:13.267Z,13.70
2022-09-29T06:51:45.706Z,13.80
2022-09-29T06:54:16.347Z,13.90
2022-09-29T06:56:46.160Z,13.90
2022-09-29T06:59:12.987Z,13.80
2022-09-29T07:01:39.943Z,13.90
2022-09-29T07:04:06.758Z,13.50
2022-09-29T07:06:33.529Z,13.80
2022-09-29T07:09:01.339Z,14.00
2022-09-29T07:11:28.920Z,14.00
2022-09-29T07:13:55.718Z,14.00
2022-09-29T07:16:26.220Z,14.00
2022-09-29T07:18:53.390Z,14.00
2022-09-29T07:21:22.155Z,14.00
2022-09-29T07:23:49.812Z,14.00
2022-09-29T07:26:18.106Z,14.00
2022-09-29T07:28:46.833Z,14.00
2022-09-29T07:31:20.114Z,14.00
2022-09-29T07:33:50.392Z,14.00
2022-09-29T07:36:20.084Z,14.00
2022-09-29T07:38:49.457Z,14.10
2022-09-29T07:41:19.038Z,14.10
2022-09-29T07:43:45.843Z,14.10
2022-09-29T07:46:13.177Z,14.10
2022-09-29T07:48:40.609Z,14.10
2022-09-29T07:51:16.508Z,14.20
2022-09-29T07:53:44.008Z,14.20
2022-09-29T07:56:18.773Z,14.20
2022-09-29T07:58:49.524Z,14.20
2022-09-29T08:01:18.922Z,14.20
2022-09-29T08:03:53.163Z,14.30
2022-09-29T08:06:21.982Z,14.30
2022-09-29T08:09:01.083Z,14.30
2022-09-29T08:11:32.883Z,14.30
2022-09-29T08:14:00.923Z,14.40
2022-09-29T08:16:28.170Z,14.40
2022-09-29T08:18:55.198Z,14.40
2022-09-29T08:21:22.166Z,14.50
2022-09-29T08:23:49.014Z,14.60
2022-09-29T08:26:28.538Z,14.60
2022-09-29T08:29:07.824Z,14.70
2022-09-29T08:31:37.303Z,14.80
2022-09-29T08:34:04.329Z,14.90
2022-09-29T08:36:31.731Z,14.90
2022-09-29T08:38:59.105Z,15.00
2022-09-29T08:41:51.091Z,15.10
2022-09-29T08:44:51.794Z,15.10
2022-09-29T08:47:46.156Z,15.30
2022-09-29T08:50:31.263Z,15.30
2022-09-29T08:53:20.388Z,15.40
2022-09-29T08:56:14.287Z,15.50
2022-09-29T08:58:41.242Z,15.50
2022-09-29T09:01:31.941Z,15.60
2022-09-29T09:04:30.022Z,15.70
2022-09-29T09:07:14.159Z,15.80
2022-09-29T09:10:22.467Z,15.80
2022-09-29T09:13:44.099Z,15.90
2022-09-29T09:16:47.169Z,16.00
2022-09-29T09:19:43.507Z,16.10
2022-09-29T09:22:45.153Z,16.20
2022-09-29T09:25:28.330Z,16.30
2022-09-29T09:28:16.766Z,16.40
2022-09-29T09:31:01.121Z,16.40
2022-09-29T09:33:39.932Z,16.50
2022-09-29T09:36:29.118Z,16.60
2022-09-29T09:39:28.669Z,16.70
2022-09-29T09:42:00.495Z,16.70
2022-09-29T09:44:45.094Z,16.80
2022-09-29T09:47:31.286Z,16.90
2022-09-29T09:50:13.888Z,16.90
2022-09-29T09:53:04.429Z,16.90
2022-09-29T09:55:36.800Z,17.10
2022-09-29T09:58:37.425Z,17.10
2022-09-29T10:01:07.212Z,17.20
2022-09-29T10:03:35.472Z,17.20
2022-09-29T10:06:02.441Z,17.20
2022-09-29T10:08:39.390Z,17.20
2022-09-29T10:11:18.604Z,17.20
2022-09-29T10:13:47.701Z,17.20
2022-09-29T10:16:25.798Z,17.10
2022-09-29T10:18:52.734Z,17.10
2022-09-29T10:21:38.259Z,17.10
2022-09-29T10:24:24.373Z,17.10
2022-09-29T10:26:55.755Z,17.10
2022-09-29T10:29:39.258Z,17.20
2022-09-29T10:32:25.673Z,17.20
2022-09-29T10:35:22.115Z,17.30
2022-09-29T10:38:02.863Z,17.40
2022-09-29T10:40:29.711Z,17.00
2022-09-29T10:42:57.626Z,17.50
2022-09-29T10:45:31.157Z,17.50
2022-09-29T10:47:57.770Z,17.60
2022-09-29T10:50:37.532Z,17.70
2022-09-29T10:53:20.228Z,17.70
2022-09-29T10:55:55.894Z,17.80
2022-09-29T10:58:44.573Z,17.90
2022-09-29T11:01:22.532Z,17.90
2022-09-29T11:04:03.868Z,17.90
2022-09-29T11:09:50.191Z,17.90
2022-09-29T11:12:27.922Z,17.90
2022-09-29T11:14:55.400Z,18.00
2022-09-29T11:17:38.157Z,18.00
2022-09-29T11:20:14.651Z,18.00
2022-09-29T11:23:03.362Z,18.00
2022-09-29T11:25:57.073Z,18.10
2022-09-29T11:29:03.254Z,18.10
2022-09-29T11:31:52.986Z,18.20
2022-09-29T11:34:44.083Z,18.30
2022-09-29T11:37:39.631Z,18.40
2022-09-29T11:40:43.436Z,18.40
2022-09-29T11:43:33.963Z,18.40
2022-09-29T11:46:29.216Z,18.40
2022-09-29T11:49:19.268Z,18.40
2022-09-29T11:52:23.381Z,18.50
2022-09-29T11:55:16.254Z,18.50
2022-09-29T11:58:14.444Z,18.50
2022-09-29T12:01:07.904Z,18.50
2022-09-29T12:03:48.912Z,18.50
2022-09-29T12:06:53.847Z,18.50
2022-09-29T12:10:13.540Z,18.50
2022-09-29T12:13:24.477Z,18.50
2022-09-29T12:16:02.237Z,18.60
2022-09-29T12:18:40.527Z,18.60
2022-09-29T12:21:15.446Z,18.60
2022-09-29T12:23:46.786Z,18.50
2022-09-29T12:26:24.411Z,18.60
2022-09-29T12:29:00.418Z,18.50
2022-09-29T12:31:51.520Z,18.50
2022-09-29T12:34:41.913Z,18.50
2022-09-29T12:37:33.358Z,18.50
2022-09-29T12:40:17.107Z,18.40
2022-09-29T12:43:02.681Z,18.40
2022-09-29T12:46:11.562Z,18.40
2022-09-29T12:49:01.018Z,18.50
2022-09-29T12:51:38.808Z,18.50
2022-09-29T12:54:41.314Z,18.50
2022-09-29T12:57:16.043Z,18.40
2022-09-29T13:00:09.005Z,18.50
2022-09-29T13:03:16.514Z,18.50
2022-09-29T13:06:14.698Z,18.50
2022-09-29T13:08:44.315Z,18.50
2022-09-29T13:12:19.805Z,18.50
2022-09-29T13:17:39.457Z,18.60
2022-09-29T13:20:36.695Z,18.70
2022-09-29T13:23:53.136Z,18.70
2022-09-29T13:26:42.731Z,18.80
2022-09-29T13:29:25.163Z,18.80
2022-09-29T13:31:55.634Z,18.80
2022-09-29T13:34:37.144Z,18.90
2022-09-29T13:37:14.225Z,18.90
2022-09-29T13:40:02.614Z,18.90
2022-09-29T13:42:39.408Z,18.90
2022-09-29T13:45:21.269Z,18.90
2022-09-29T13:47:54.816Z,18.90
2022-09-29T13:50:46.222Z,18.90
2022-09-29T13:53:22.163Z,19.00
2022-09-29T13:56:03.348Z,18.90
2022-09-29T13:58:34.758Z,18.90
2022-09-29T14:01:06.463Z,18.90
2022-09-29T14:03:39.863Z,18.90
2022-09-29T14:06:41.540Z,18.90
2022-09-29T14:09:19.318Z,18.90
2022-09-29T14:11:52.810Z,18.80
2022-09-29T14:14:34.696Z,18.80
2022-09-29T14:17:04.528Z,18.90
2022-09-29T14:19:59.608Z,18.80
2022-09-29T14:22:38.285Z,18.80
2022-09-29T14:25:08.005Z,18.80
2022-09-29T14:28:09.452Z,18.70
2022-09-29T14:30:52.249Z,18.60
2022-09-29T14:33:42.452Z,18.70
2022-09-29T14:36:18.296Z,18.60
2022-09-29T14:39:02.678Z,18.50
2022-09-29T14:41:43.643Z,18.50
2022-09-29T14:44:25.047Z,18.40
2022-09-29T14:47:44.209Z,18.40
2022-09-29T14:51:17.946Z,18.40
2022-09-29T14:54:21.513Z,18.40
2022-09-29T14:57:11.150Z,18.30
2022-09-29T14:59:59.706Z,18.30
2022-09-29T15:02:30.934Z,18.30
2022-09-29T15:04:58.100Z,18.30
2022-09-29T15:07:28.897Z,18.30
2022-09-29T15:10:00.215Z,18.30
2022-09-29T15:12:31.666Z,18.30
2022-09-29T15:15:01.540Z,18.30
2022-09-29T15:18:06.577Z,18.30
2022-09-29T15:20:53.358Z,18.20
2022-09-29T15:23:33.361Z,18.20
2022-09-29T15:26:01.173Z,18.20
2022-09-29T15:28:38.673Z,18.20
2022-09-29T15:31:19.378Z,18.30
2022-09-29T15:33:47.761Z,18.20
2022-09-29T15:36:28.217Z,18.20
2022-09-29T15:39:06.287Z,18.20
2022-09-29T15:41:35.138Z,18.20
2022-09-29T15:44:13.253Z,18.20
2022-09-29T15:46:48.826Z,18.10
2022-09-29T15:49:19.478Z,18.10
2022-09-29T15:52:06.744Z,18.00
2022-09-29T15:54:44.849Z,18.00
2022-09-29T15:57:57.726Z,18.00
2022-09-29T16:00:26.160Z,17.90
2022-09-29T16:03:27.701Z,17.90
2022-09-29T16:06:25.290Z,17.90
2022-09-29T16:08:58.560Z,17.80
2022-09-29T16:11:34.557Z,17.80
2022-09-29T16:14:23.279Z,17.70
2022-09-29T16:16:57.320Z,17.70
2022-09-29T16:19:34.693Z,17.60
2022-09-29T16:22:06.597Z,17.60
2022-09-29T16:24:52.541Z,17.40
2022-09-29T16:27:44.063Z,17.40
2022-09-29T16:30:33.362Z,17.30
2022-09-29T16:33:22.679Z,17.30
2022-09-29T16:35:55.387Z,17.20
2022-09-29T16:38:44.867Z,17.10
2022-09-29T16:41:14.638Z,17.00
2022-09-29T16:43:44.960Z,16.90
2022-09-29T16:46:21.164Z,16.80
2022-09-29T16:48:50.236Z,16.70
2022-09-29T16:51:38.304Z,16.60
2022-09-29T16:54:06.198Z,16.60
2022-09-29T16:56:35.733Z,17.00
2022-09-29T16:59:17.889Z,16.40
2022-09-29T17:01:48.646Z,16.20
2022-09-29T17:04:15.547Z,16.20
2022-09-29T17:06:48.500Z,16.10
2022-09-29T17:09:20.500Z,16.00
2022-09-29T17:11:49.460Z,16.00
2022-09-29T17:14:18.570Z,15.90
2022-09-29T17:16:46.029Z,15.80
2022-09-29T17:19:12.995Z,15.80
2022-09-29T17:21:39.944Z,15.70
2022-09-29T17:24:06.755Z,15.60
2022-09-29T17:27:04.376Z,15.60
2022-09-29T17:29:32.610Z,15.50
2022-09-29T17:32:02.265Z,15.50
2022-09-29T17:34:30.037Z,15.40
2022-09-29T17:37:02.093Z,15.30
2022-09-29T17:39:29.581Z,15.30
2022-09-29T17:41:57.844Z,15.20
2022-09-29T17:44:27.143Z,15.20
2022-09-29T17:47:05.237Z,15.10
2022-09-29T17:49:44.190Z,15.00
2022-09-29T17:52:15.176Z,15.00
2022-09-29T17:54:42.982Z,14.90
2022-09-29T17:57:24.247Z,14.90
2022-09-29T17:59:51.275Z,14.90
2022-09-29T18:02:18.090Z,14.80
2022-09-29T18:04:48.391Z,14.80
2022-09-29T18:07:16.472Z,14.80
2022-09-29T18:09:44.464Z,14.70
2022-09-29T18:12:11.337Z,14.70
2022-09-29T18:14:38.124Z,14.60
2022-09-29T18:17:05.719Z,14.60
2022-09-29T18:19:35.722Z,14.50
2022-09-29T18:22:06.036Z,14.50
2022-09-29T18:24:34.407Z,14.40
2022-09-29T18:27:01.223Z,14.40
2022-09-29T18:29:28.091Z,14.40
2022-09-29T18:31:54.848Z,14.40
2022-09-29T18:34:23.252Z,14.40
2022-09-29T18:36:50.246Z,14.30
2022-09-29T18:39:17.238Z,14.30
2022-09-29T18:41:44.090Z,14.30
2022-09-29T18:44:17.763Z,14.30
2022-09-29T18:46:44.758Z,14.20
2022-09-29T18:49:14.243Z,14.20
2022-09-29T18:51:41.891Z,14.20
2022-09-29T18:54:09.111Z,14.20
2022-09-29T18:56:36.112Z,14.10
2022-09-29T18:59:05.964Z,14.20
2022-09-29T19:01:32.967Z,14.10
2022-09-29T19:03:59.874Z,13.10
2022-09-29T19:06:26.922Z,14.10
2022-09-29T19:08:53.698Z,14.10
2022-09-29T19:11:25.375Z,14.10
2022-09-29T19:13:56.489Z,14.10
2022-09-29T19:16:25.958Z,14.10
2022-09-29T19:18:52.920Z,14.00
2022-09-29T19:21:19.721Z,14.00
2022-09-29T19:23:46.751Z,14.00
2022-09-29T19:26:22.344Z,14.00
2022-09-29T19:28:49.424Z,14.00
2022-09-29T19:31:21.254Z,13.90
2022-09-29T19:33:48.963Z,13.90
2022-09-29T19:36:20.883Z,13.90
2022-09-29T19:38:51.590Z,13.90
2022-09-29T19:41:23.418Z,13.80
2022-09-29T19:43:53.106Z,13.80
2022-09-29T19:46:21.276Z,13.80
2022-09-29T19:48:48.988Z,13.80
2022-09-29T19:51:36.707Z,13.70
2022-09-29T19:54:10.807Z,13.70
2022-09-29T19:56:45.982Z,13.70
2022-09-29T19:59:14.314Z,13.60
2022-09-29T20:01:45.356Z,13.60
2022-09-29T20:04:14.591Z,13.60
2022-09-29T20:06:48.423Z,13.50
2022-09-29T20:09:16.836Z,13.90
2022-09-29T20:11:47.075Z,13.50
2022-09-29T20:14:16.758Z,13.50
2022-09-29T20:16:46.908Z,13.50
2022-09-29T20:19:18.563Z,13.40
2022-09-29T20:21:48.061Z,13.50
2022-09-29T20:24:18.577Z,13.40
2022-09-29T20:26:47.804Z,13.40
2022-09-29T20:29:19.066Z,13.40
2022-09-29T20:31:48.110Z,13.40
2022-09-29T20:34:18.481Z,13.50
2022-09-29T20:36:46.484Z,13.40
2022-09-29T20:39:14.752Z,13.20
2022-09-29T20:41:43.862Z,13.30
2022-09-29T20:44:12.380Z,13.30
2022-09-29T20:46:39.598Z,13.30
2022-09-29T20:49:06.377Z,13.30
2022-09-29T20:51:37.689Z,13.30
2022-09-29T20:54:04.861Z,13.30
2022-09-29T20:56:35.882Z,13.30
2022-09-29T20:59:03.088Z,13.30
2022-09-29T21:01:32.013Z,13.20
2022-09-29T21:04:15.066Z,13.20
2022-09-29T21:06:48.438Z,13.20
2022-09-29T21:09:22.764Z,13.20
2022-09-29T21:11:52.261Z,13.20
2022-09-29T21:14:24.216Z,13.10
2022-09-29T21:16:53.213Z,13.10
2022-09-29T21:19:25.980Z,13.20
2022-09-29T21:21:55.049Z,13.10
2022-09-29T21:24:21.911Z,13.10
2022-09-29T21:26:48.830Z,13.10
2022-09-29T21:29:18.895Z,13.10
2022-09-29T21:31:46.568Z,12.90
2022-09-29T21:34:15.427Z,13.00
2022-09-29T21:36:42.419Z,12.90
2022-09-29T21:39:09.535Z,12.90
2022-09-29T21:41:42.510Z,12.90
2022-09-29T21:44:15.554Z,12.80
2022-09-29T21:46:44.419Z,12.80
2022-09-29T21:49:14.457Z,12.80
2022-09-29T21:51:48.132Z,12.80
2022-09-29T21:54:22.200Z,12.70
2022-09-29T21:56:50.689Z,12.70
2022-09-29T21:59:20.913Z,12.70
2022-09-29T22:01:48.305Z,12.70
2022-09-29T22:04:16.001Z,12.60
2022-09-29T22:06:44.879Z,12.60
2022-09-29T22:09:17.257Z,12.60
2022-09-29T22:11:46.195Z,12.60
2022-09-29T22:14:14.112Z,12.50
2022-09-29T22:16:41.106Z,12.50
2022-09-29T22:19:25.877Z,12.50
2022-09-29T22:21:54.784Z,12.50
2022-09-29T22:24:24.030Z,12.50
2022-09-29T22:26:51.566Z,12.50
2022-09-29T22:29:18.607Z,12.40
2022-09-29T22:31:45.996Z,12.40
2022-09-29T22:34:12.832Z,12.40
2022-09-29T22:36:39.878Z,12.40
2022-09-29T22:39:07.449Z,12.30
2022-09-29T22:41:36.869Z,12.30
2022-09-29T22:44:04.578Z,12.30
2022-09-29T22:46:32.588Z,12.30
2022-09-29T22:48:59.865Z,12.30
2022-09-29T22:51:27.682Z,12.30
2022-09-29T22:53:54.466Z,12.30
2022-09-29T22:56:28.633Z,12.30
2022-09-29T22:59:02.049Z,12.30
2022-09-29T23:01:29.743Z,12.30
2022-09-29T23:03:56.771Z,12.30
2022-09-29T23:06:23.540Z,12.30
2022-09-29T23:08:50.938Z,12.30
2022-09-29T23:11:19.766Z,12.30
2022-09-29T23:13:47.690Z,12.30
2022-09-29T23:16:16.759Z,12.30
2022-09-29T23:18:45.989Z,12.20
2022-09-29T23:21:17.831Z,12.20
2022-09-29T23:23:45.374Z,12.20
2022-09-29T23:26:12.543Z,12.20
2022-09-29T23:28:39.387Z,12.20
2022-09-29T23:31:08.285Z,12.20
2022-09-29T23:33:35.537Z,12.20
2022-09-29T23:36:11.635Z,12.20
2022-09-29T23:38:59.018Z,12.20
2022-09-29T23:41:27.447Z,12.20
2022-09-29T23:43:57.389Z,12.10
2022-09-29T23:46:26.798Z,12.10
2022-09-29T23:48:53.635Z,12.10
2022-09-29T23:51:21.213Z,12.10
2022-09-29T23:53:48.041Z,12.10
2022-09-29T23:56:15.722Z,12.00
2022-09-29T23:58:43.849Z,12.00
